logo
Search for airport 
image banner adimage banner adimage banner ad
image banner ad

BITM - Thorsmork

Located in Thorsmork, Iceland

ICAO - BITM, IATA -

Data provided by Airmate  

General information

Coordinates: N63°41'24" W19°33'47"
Elevation is 634 feet MSL.
 
View others Airports in South

Operational data

Special qualification required
Current time UTC:
Current local time:
Weather at : BIVM - Vestmannaeyjar ( 46 km )
METAR: BIVM 251500Z 18005KT 0500 FG VV002 12/11 Q0992
TAF: TAF BIVM 251328Z 2514/2519 14005KT 9999 OVC015 TEMPO 2514/2519 3500 -RADZ BR OVC004 BECMG 2515/2517 26008KT
View NOTAMs / SUP AIP / TFR affecting this airport [VIEW]
Communications frequencies: [VIEW]

Runways:

RWY identifierQFULength (ft)Width (ft)SurfaceLDA (ft)
09252692GRAVE
27252692GRAVE

Airport contact information

Address: Thorsmork Iceland

Satellite view of BITM